Time;durP1;ratioP1;P1;durP2;ratioP2;P2;SDS_P1;SDS_P2;PMS_P1;PMS_P2;Temp;Humidity;BMP_temperature;BMP_pressure;BME280_temperature;BME280_humidity;BME280_pressure;Samples;Min_cycle;Max_cycle;Signal;HPM_P1;HPM_P2
2021/10/09 00:00:14;;;;;;;21.90;19.63;;;;;;;6.85;100.00;96688.88;5031949;28;24415;-76
2021/10/09 00:02:41;;;;;;;22.98;20.52;;;;;;;6.84;100.00;96694.09;5031471;28;24557;-76
2021/10/09 00:05:08;;;;;;;25.50;19.67;;;;;;;6.79;100.00;96694.25;5031618;28;24431;-76
2021/10/09 00:07:35;;;;;;;26.13;21.73;;;;;;;6.78;100.00;96690.81;5031901;28;24423;-76
2021/10/09 00:10:06;;;;;;;24.53;20.67;;;;;;;6.71;100.00;96697.09;5031578;28;21335;-76
2021/10/09 00:12:32;;;;;;;23.53;20.60;;;;;;;6.68;100.00;96699.75;5031725;28;24434;-76
2021/10/09 00:14:59;;;;;;;28.95;20.38;;;;;;;6.71;100.00;96697.09;5031190;28;24493;-76
2021/10/09 00:17:29;;;;;;;25.80;21.08;;;;;;;6.63;100.00;96701.63;5031665;28;24447;-76
2021/10/09 00:19:55;;;;;;;23.80;21.30;;;;;;;6.66;100.00;96696.38;5031480;28;25003;-76
2021/10/09 00:22:22;;;;;;;26.02;20.85;;;;;;;6.72;100.00;96696.19;5031546;28;24428;-76
2021/10/09 00:24:49;;;;;;;20.17;18.15;;;;;;;6.87;100.00;96694.00;5031409;28;24419;-76
2021/10/09 00:27:15;;;;;;;21.13;18.87;;;;;;;7.01;100.00;96700.38;5031367;28;24802;-76
2021/10/09 00:29:42;;;;;;;16.48;14.77;;;;;;;6.94;100.00;96701.47;5031118;28;24973;-76
2021/10/09 00:32:08;;;;;;;18.10;16.20;;;;;;;7.02;100.00;96702.06;5031157;28;24958;-76
2021/10/09 00:34:36;;;;;;;17.60;15.63;;;;;;;7.06;100.00;96696.81;5031067;28;24498;-76
2021/10/09 00:37:03;;;;;;;16.92;14.73;;;;;;;7.05;100.00;96702.84;5031655;28;24435;-76
2021/10/09 00:39:29;;;;;;;19.80;16.58;;;;;;;7.00;100.00;96701.25;5031220;28;24448;-76
2021/10/09 00:41:56;;;;;;;18.10;16.00;;;;;;;6.99;100.00;96696.16;5031025;28;24432;-76
2021/10/09 00:44:23;;;;;;;20.27;16.63;;;;;;;6.89;100.00;96699.94;5031117;28;24416;-76
2021/10/09 00:46:50;;;;;;;19.08;15.95;;;;;;;6.96;100.00;96693.69;5031338;28;24428;-76
2021/10/09 00:49:17;;;;;;;13.90;10.80;;;;;;;6.91;100.00;96696.41;5031101;28;24435;-76
2021/10/09 00:51:46;;;;;;;10.85;9.77;;;;;;;6.78;100.00;96690.81;5030970;28;24428;-76
2021/10/09 00:54:14;;;;;;;11.75;9.75;;;;;;;6.70;100.00;96692.81;5030967;28;24427;-77
2021/10/09 00:56:41;;;;;;;15.10;13.43;;;;;;;6.60;100.00;96690.56;5030902;28;24817;-76
2021/10/09 00:59:08;;;;;;;16.98;14.45;;;;;;;6.72;100.00;96690.19;5030941;28;24537;-76
2021/10/09 01:01:36;;;;;;;16.70;14.07;;;;;;;6.68;100.00;96686.06;5031000;28;24415;-76
2021/10/09 01:04:05;;;;;;;16.13;14.23;;;;;;;6.69;100.00;96685.16;5030725;28;24819;-76
2021/10/09 01:06:31;;;;;;;17.80;15.33;;;;;;;6.57;100.00;96686.41;5030681;28;24431;-76
2021/10/09 01:08:59;;;;;;;21.75;16.25;;;;;;;6.47;100.00;96678.13;5030618;28;24416;-76
2021/10/09 01:11:26;;;;;;;18.02;15.50;;;;;;;6.55;100.00;96681.28;5030637;28;24953;-76
2021/10/09 01:13:52;;;;;;;16.92;14.93;;;;;;;6.57;100.00;96681.25;5030236;28;24450;-76
2021/10/09 01:16:20;;;;;;;14.15;12.60;;;;;;;6.64;100.00;96677.59;5030275;28;24499;-76
2021/10/09 01:18:48;;;;;;;14.48;11.43;;;;;;;6.61;100.00;96682.00;5030554;28;24447;-76
2021/10/09 01:21:16;;;;;;;15.07;10.77;;;;;;;6.50;100.00;96680.59;5030798;28;24474;-76
2021/10/09 01:23:43;;;;;;;15.45;12.93;;;;;;;6.53;100.00;96679.66;5030399;28;24830;-76
2021/10/09 01:26:10;;;;;;;15.13;13.63;;;;;;;6.46;100.00;96678.19;5030200;28;25138;-76
2021/10/09 01:28:37;;;;;;;15.35;12.52;;;;;;;6.54;100.00;96671.88;5030382;28;25004;-76
2021/10/09 01:31:04;;;;;;;12.88;11.57;;;;;;;6.61;100.00;96674.28;5030526;28;24493;-75
2021/10/09 01:33:30;;;;;;;12.80;11.50;;;;;;;6.60;100.00;96685.44;5030500;28;24411;-76
2021/10/09 01:35:58;;;;;;;12.85;11.15;;;;;;;6.51;100.00;96674.56;5030222;28;24491;-76
2021/10/09 01:38:28;;;;;;;12.38;11.18;;;;;;;6.40;100.00;96676.63;5030133;28;24456;-76
2021/10/09 01:40:56;;;;;;;18.70;10.98;;;;;;;6.18;100.00;96676.47;5030238;28;24431;-76
2021/10/09 01:43:24;;;;;;;15.30;11.57;;;;;;;6.09;100.00;96678.50;5030248;28;24945;-76
2021/10/09 01:45:51;;;;;;;13.07;10.68;;;;;;;6.20;100.00;96673.84;5029968;28;24962;-76
2021/10/09 01:48:18;;;;;;;11.50;10.30;;;;;;;6.24;100.00;96673.69;5030013;28;24962;-76
2021/10/09 01:50:46;;;;;;;11.32;10.25;;;;;;;6.25;100.00;96671.97;5030163;28;24420;-76
2021/10/09 01:53:13;;;;;;;11.20;10.02;;;;;;;6.28;100.00;96669.31;5030451;28;24432;-76
2021/10/09 01:55:40;;;;;;;15.07;10.43;;;;;;;6.29;100.00;96663.25;5030223;28;24424;-76
2021/10/09 01:58:07;;;;;;;14.07;12.68;;;;;;;6.28;100.00;96667.56;5029888;28;24485;-76
2021/10/09 02:00:35;;;;;;;11.23;9.63;;;;;;;6.20;100.00;96671.28;5030259;28;24408;-76
2021/10/09 02:03:03;;;;;;;13.13;11.73;;;;;;;6.20;100.00;96676.44;5030135;28;24960;-76
2021/10/09 02:05:33;;;;;;;15.82;11.68;;;;;;;6.26;100.00;96660.78;5029762;28;24810;-76
2021/10/09 02:07:59;;;;;;;14.63;10.63;;;;;;;6.29;100.00;96665.84;5030196;28;24431;-76
2021/10/09 02:10:26;;;;;;;15.18;11.07;;;;;;;6.30;100.00;96664.94;5030372;28;24446;-76
2021/10/09 02:12:54;;;;;;;15.35;12.73;;;;;;;6.37;100.00;96663.03;5030160;28;24424;-76
2021/10/09 02:15:24;;;;;;;14.73;11.27;;;;;;;6.25;100.00;96666.81;5030002;28;24526;-76
2021/10/09 02:25:59;;;;;;;11.70;10.43;;;;;;;6.10;100.00;96667.31;5019568;28;24871;-75
2021/10/09 02:28:27;;;;;;;12.15;10.95;;;;;;;6.10;100.00;96663.00;5033284;28;24825;-76
2021/10/09 02:30:55;;;;;;;13.40;9.37;;;;;;;6.05;100.00;96665.72;5033735;28;24485;-76
2021/10/09 02:33:21;;;;;;;9.38;8.48;;;;;;;6.05;100.00;96670.03;5033801;28;24427;-76
2021/10/09 02:35:48;;;;;;;9.75;8.85;;;;;;;5.90;100.00;96667.88;5033116;28;24945;-76
2021/10/09 02:38:15;;;;;;;12.65;9.43;;;;;;;5.73;100.00;96664.06;5033298;28;24474;-76
2021/10/09 02:40:43;;;;;;;9.67;8.50;;;;;;;5.66;100.00;96667.69;5033259;28;24416;-76
2021/10/09 02:43:10;;;;;;;12.00;10.38;;;;;;;5.62;100.00;96666.09;5033187;28;24431;-76
2021/10/09 02:45:38;;;;;;;10.40;9.05;;;;;;;5.63;100.00;96664.38;5032924;28;24432;-76
2021/10/09 02:48:07;;;;;;;13.65;8.70;;;;;;;5.59;100.00;96666.19;5033020;28;24477;-76
2021/10/09 02:50:34;;;;;;;13.63;9.98;;;;;;;5.50;100.00;96656.19;5033446;28;24424;-76
2021/10/09 02:53:01;;;;;;;10.93;9.60;;;;;;;5.50;100.00;96663.91;5033375;28;24427;-75
2021/10/09 02:55:27;;;;;;;11.20;10.10;;;;;;;5.53;100.00;96664.66;5032803;28;24481;-76
2021/10/09 02:57:54;;;;;;;65.70;40.95;;;;;;;5.44;100.00;96664.06;5033185;28;24438;-76
2021/10/09 03:00:21;;;;;;;131.75;74.80;;;;;;;5.46;100.00;96667.44;5032748;28;24977;-76
2021/10/09 03:02:49;;;;;;;146.35;83.78;;;;;;;5.55;100.00;96668.00;5032833;28;24418;-76
2021/10/09 03:05:16;;;;;;;150.82;83.35;;;;;;;5.53;100.00;96666.38;5032831;28;24424;-76
2021/10/09 03:07:42;;;;;;;116.43;67.25;;;;;;;5.56;100.00;96662.00;5032737;28;24454;-76
2021/10/09 03:10:10;;;;;;;36.03;25.85;;;;;;;5.42;100.00;96663.28;5032946;28;24424;-76
2021/10/09 03:12:39;;;;;;;51.20;32.80;;;;;;;5.52;100.00;96665.53;5034788;28;24841;-76
2021/10/09 03:15:06;;;;;;;79.85;43.80;;;;;;;5.61;100.00;96661.03;5033473;28;24420;-76
2021/10/09 03:17:33;;;;;;;50.47;31.23;;;;;;;5.62;100.00;96662.69;5032662;28;24435;-76
2021/10/09 03:20:01;;;;;;;36.77;25.53;;;;;;;5.57;100.00;96655.13;5032534;28;24451;-76
2021/10/09 03:22:27;;;;;;;36.15;23.35;;;;;;;5.56;100.00;96656.00;5032403;28;24442;-76
2021/10/09 03:24:54;;;;;;;19.13;15.57;;;;;;;5.39;100.00;96650.53;5032456;28;24424;-76
2021/10/09 03:27:20;;;;;;;16.17;14.43;;;;;;;5.42;100.00;96653.00;5032520;28;24435;-76
2021/10/09 03:29:46;;;;;;;18.83;15.48;;;;;;;5.48;100.00;96660.53;5032536;28;24423;-76
2021/10/09 03:32:13;;;;;;;31.35;19.90;;;;;;;5.49;100.00;96657.94;5032524;28;24826;-76
2021/10/09 03:34:39;;;;;;;25.70;18.80;;;;;;;5.49;100.00;96657.94;5032006;28;24426;-76
2021/10/09 03:37:10;;;;;;;24.85;19.02;;;;;;;5.46;100.00;96663.16;5031596;28;24420;-76
2021/10/09 03:39:38;;;;;;;23.53;17.07;;;;;;;5.42;100.00;96655.56;5032453;28;24526;-76
2021/10/09 03:42:08;;;;;;;20.65;14.25;;;;;;;5.41;100.00;96656.44;5032275;28;24842;-76
2021/10/09 03:44:38;;;;;;;15.27;11.45;;;;;;;5.45;100.00;96661.47;5031984;28;24420;-76
2021/10/09 03:47:15;;;;;;;15.13;11.82;;;;;;;5.24;100.00;96660.34;5032137;28;24451;-76
2021/10/09 03:49:47;;;;;;;16.20;13.65;;;;;;;5.35;100.00;96660.03;5032126;28;24833;-76
2021/10/09 03:54:58;;;;;;;15.43;12.63;;;;;;;5.23;100.00;96666.34;5031775;28;24407;-76
2021/10/09 03:57:25;;;;;;;13.47;12.07;;;;;;;5.36;100.00;96664.28;5031900;28;24526;-76
2021/10/09 03:59:51;;;;;;;13.20;11.90;;;;;;;5.40;100.00;96660.75;5031809;28;24444;-76
2021/10/09 04:02:18;;;;;;;11.95;10.70;;;;;;;5.40;100.00;96671.00;5031772;28;24950;-76
2021/10/09 04:04:44;;;;;;;13.13;10.65;;;;;;;5.43;100.00;96660.66;5031520;28;24419;-76
2021/10/09 04:07:11;;;;;;;13.02;9.43;;;;;;;5.54;100.00;96663.75;5031646;28;24977;-76
2021/10/09 04:09:39;;;;;;;10.48;9.43;;;;;;;5.47;100.00;96664.81;5032016;28;24432;-76
2021/10/09 04:12:06;;;;;;;12.38;8.55;;;;;;;5.42;100.00;96663.28;5031687;28;24443;-76
2021/10/09 04:14:32;;;;;;;12.82;9.60;;;;;;;5.25;100.00;96661.16;5031256;28;24855;-76
2021/10/09 04:16:59;;;;;;;9.40;8.50;;;;;;;5.08;100.00;96666.78;5031319;28;24447;-76
2021/10/09 04:19:25;;;;;;;10.38;8.80;;;;;;;4.89;100.00;96660.41;5031566;28;24447;-76
2021/10/09 04:21:52;;;;;;;10.95;8.90;;;;;;;4.88;99.40;96659.59;5031597;28;24419;-76
2021/10/09 04:24:19;;;;;;;11.95;9.57;;;;;;;4.68;100.00;96667.81;5031517;28;24431;-76
2021/10/09 04:26:47;;;;;;;13.38;8.98;;;;;;;4.50;100.00;96666.53;5030966;28;24428;-76
2021/10/09 04:29:14;;;;;;;12.68;9.40;;;;;;;4.53;100.00;96665.63;5031204;28;24426;-76
2021/10/09 04:31:40;;;;;;;12.50;9.25;;;;;;;4.45;100.00;96660.69;5031559;28;24829;-76
2021/10/09 04:34:07;;;;;;;14.77;10.70;;;;;;;4.51;100.00;96663.06;5031538;28;24435;-76
2021/10/09 04:36:33;;;;;;;11.48;10.05;;;;;;;4.55;100.00;96666.41;5031137;28;24426;-76
2021/10/09 04:39:00;;;;;;;11.68;10.45;;;;;;;4.66;100.00;96671.28;5031260;28;24481;-76
2021/10/09 04:41:27;;;;;;;11.10;10.00;;;;;;;4.64;100.00;96668.78;5031345;28;24432;-76
2021/10/09 04:43:54;;;;;;;10.55;9.35;;;;;;;4.70;100.00;96660.91;5031188;28;24424;-76
2021/10/09 04:46:21;;;;;;;11.52;9.98;;;;;;;4.65;100.00;96659.34;5030876;28;24455;-76
2021/10/09 04:48:47;;;;;;;10.50;8.93;;;;;;;4.60;100.00;96659.47;5030349;28;24419;-76
2021/10/09 04:51:14;;;;;;;10.35;8.98;;;;;;;4.64;100.00;96658.50;5031013;28;24420;-76
2021/10/09 04:53:41;;;;;;;11.23;9.20;;;;;;;4.52;100.00;96669.88;5030992;28;24861;-76
2021/10/09 04:56:07;;;;;;;9.63;8.63;;;;;;;4.38;100.00;96674.53;5030636;28;24478;-76
2021/10/09 04:58:34;;;;;;;9.13;8.20;;;;;;;4.28;100.00;96667.94;5030618;28;24416;-76
2021/10/09 05:01:02;;;;;;;9.10;8.23;;;;;;;4.40;98.95;96677.88;5030852;28;24440;-76
2021/10/09 05:03:28;;;;;;;10.02;9.02;;;;;;;4.23;100.00;96675.75;5030806;28;24432;-76
2021/10/09 05:05:55;;;;;;;12.50;9.90;;;;;;;4.06;100.00;96673.56;5030404;28;25016;-76
2021/10/09 05:08:21;;;;;;;11.68;10.48;;;;;;;4.04;100.00;96674.44;5030724;28;24438;-76
2021/10/09 05:10:47;;;;;;;15.40;9.63;;;;;;;4.27;100.00;96673.94;5030556;28;24976;-76
2021/10/09 05:13:14;;;;;;;12.02;9.60;;;;;;;4.08;100.00;96671.81;5030626;28;24964;-76
2021/10/09 05:15:41;;;;;;;11.18;9.98;;;;;;;4.08;100.00;96670.97;5030440;28;24431;-76
2021/10/09 05:18:09;;;;;;;16.70;9.07;;;;;;;4.16;100.00;96669.06;5030861;28;24519;-76
2021/10/09 05:20:36;;;;;;;10.63;9.30;;;;;;;4.05;100.00;96668.47;5030660;28;24497;-76
2021/10/09 05:23:03;;;;;;;10.47;9.30;;;;;;;4.10;100.00;96670.03;5030523;28;24520;-76
2021/10/09 05:25:31;;;;;;;9.15;7.93;;;;;;;4.08;100.00;96682.06;5030196;28;24424;-76
2021/10/09 05:28:01;;;;;;;9.35;8.38;;;;;;;4.03;100.00;96672.78;5030528;28;24432;-76
2021/10/09 05:30:29;;;;;;;9.93;8.90;;;;;;;4.03;100.00;96677.91;5030625;28;24565;-76
2021/10/09 05:33:13;;;;;;;8.55;7.75;;;;;;;3.99;100.00;96679.69;5030400;28;24972;-76
2021/10/09 05:35:41;;;;;;;11.02;8.38;;;;;;;4.15;100.00;96676.78;5030374;28;24503;-76
2021/10/09 05:38:09;;;;;;;9.55;8.15;;;;;;;4.13;100.00;96667.41;5030323;28;24424;-76
2021/10/09 05:40:35;;;;;;;8.70;7.80;;;;;;;4.02;100.00;96679.63;5030407;28;24854;-76
2021/10/09 05:43:02;;;;;;;9.07;8.10;;;;;;;4.04;100.00;96680.44;5030451;28;24522;-76
2021/10/09 05:45:28;;;;;;;8.37;7.43;;;;;;;4.06;100.00;96681.25;5030130;28;24420;-76
2021/10/09 05:47:55;;;;;;;8.45;7.07;;;;;;;4.05;100.00;96689.81;5030118;28;24432;-76
2021/10/09 05:50:25;;;;;;;5.40;4.97;;;;;;;4.15;100.00;96692.16;5030237;28;24430;-76
2021/10/09 05:52:57;;;;;;;6.10;4.82;;;;;;;4.08;100.00;96688.91;5030470;28;24427;-76
2021/10/09 05:55:27;;;;;;;6.07;5.18;;;;;;;4.09;100.00;96699.13;5030172;28;24451;-76
2021/10/09 05:58:03;;;;;;;6.72;5.40;;;;;;;4.19;100.00;96696.34;5030307;28;24446;-76
2021/10/09 06:00:52;;;;;;;4.70;4.30;;;;;;;4.21;100.00;96697.16;5031238;28;24448;-76
2021/10/09 06:26:00;;;;;;;8.02;7.22;;;;;;;4.77;100.00;96720.63;5053207;28;24391;-76
2021/10/09 06:31:40;;;;;;;15.13;9.13;;;;;;;4.83;100.00;96728.16;5053677;28;24390;-76
2021/10/09 06:45:21;;;;;;;9.45;8.20;;;;;;;5.31;100.00;96727.78;5052994;28;24508;-76
2021/10/09 06:47:49;;;;;;;8.02;7.13;;;;;;;5.52;100.00;96736.63;5053897;28;24518;-77
2021/10/09 07:01:40;;;;;;;6.65;5.97;;;;;;;6.37;100.00;96738.47;5012430;28;24534;-76
2021/10/09 07:04:06;;;;;;;7.22;6.53;;;;;;;6.64;100.00;96735.94;5035012;28;24424;-76
2021/10/09 07:06:32;;;;;;;10.50;8.10;;;;;;;6.89;100.00;96735.97;5053119;28;24427;-76
2021/10/09 07:08:59;;;;;;;11.00;8.00;;;;;;;6.85;100.00;96736.97;5053928;28;24805;-76
2021/10/09 07:11:25;;;;;;;13.85;10.05;;;;;;;7.03;100.00;96733.78;5053620;28;24464;-76
2021/10/09 07:13:52;;;;;;;10.53;8.60;;;;;;;7.38;100.00;96748.06;5053143;28;24442;-76
2021/10/09 07:16:19;;;;;;;10.77;8.93;;;;;;;7.71;100.00;96742.59;5053190;28;24520;-76
2021/10/09 07:18:46;;;;;;;12.90;9.15;;;;;;;8.04;100.00;96739.69;5053979;28;24427;-71
2021/10/09 07:21:12;;;;;;;11.95;8.93;;;;;;;8.32;100.00;96745.50;5053151;28;24501;-76
2021/10/09 07:23:39;;;;;;;13.65;11.27;;;;;;;8.29;100.00;96753.34;5053525;28;24419;-77
2021/10/09 07:26:07;;;;;;;16.40;12.00;;;;;;;8.20;100.00;96751.97;5053520;28;24979;-77
2021/10/09 07:28:33;;;;;;;16.70;13.27;;;;;;;7.81;100.00;96741.38;5053813;28;24434;-77
2021/10/09 07:31:00;;;;;;;14.38;12.07;;;;;;;8.14;100.00;96752.19;5055150;28;24450;-77
2021/10/09 07:33:27;;;;;;;10.50;9.32;;;;;;;8.51;100.00;96747.41;5054520;28;24423;-76
2021/10/09 07:35:54;;;;;;;14.88;11.32;;;;;;;8.60;100.00;96749.63;5054634;28;24489;-77
2021/10/09 07:38:20;;;;;;;12.43;11.13;;;;;;;8.79;100.00;96755.75;5054781;28;21281;-77
2021/10/09 07:40:47;;;;;;;11.80;10.48;;;;;;;8.83;100.00;96752.16;5054589;28;24489;-77
2021/10/09 07:43:13;;;;;;;13.88;10.98;;;;;;;9.23;100.00;96755.66;5053474;28;24828;-80
2021/10/09 07:45:41;;;;;;;21.48;12.98;;;;;;;9.20;100.00;96751.47;5053612;28;24426;-80
2021/10/09 07:48:07;;;;;;;15.52;12.75;;;;;;;9.55;100.00;96761.22;5054233;28;24431;-78
2021/10/09 07:50:36;;;;;;;14.98;13.10;;;;;;;9.92;100.00;96763.06;5054968;28;20763;-78
2021/10/09 07:53:02;;;;;;;16.50;13.80;;;;;;;10.12;100.00;96755.25;5054929;28;24424;-79
2021/10/09 07:55:29;;;;;;;18.48;13.27;;;;;;;10.45;99.56;96752.03;5054818;28;24412;-78
2021/10/09 07:57:55;;;;;;;18.33;13.65;;;;;;;10.64;97.68;96749.41;5055802;28;24972;-78
2021/10/09 08:00:22;;;;;;;18.98;13.73;;;;;;;10.89;94.41;96756.88;5055858;28;24452;-78
2021/10/09 08:02:49;;;;;;;17.08;13.65;;;;;;;10.99;94.69;96754.69;5055516;28;24439;-78
2021/10/09 08:05:15;;;;;;;19.30;13.60;;;;;;;10.87;95.62;96749.19;5055432;28;24415;-78
2021/10/09 08:07:43;;;;;;;17.10;13.63;;;;;;;11.02;94.50;96754.53;5055154;28;24431;-78
2021/10/09 08:10:11;;;;;;;20.95;13.27;;;;;;;10.92;92.70;96746.34;5056396;28;20817;-78
2021/10/09 08:12:37;;;;;;;19.70;13.38;;;;;;;11.09;96.58;96750.72;5054821;28;24959;-78
2021/10/09 08:15:05;;;;;;;17.48;13.23;;;;;;;11.35;96.87;96739.91;5055457;28;24477;-78
2021/10/09 08:17:32;;;;;;;19.25;14.32;;;;;;;11.66;93.09;96748.69;5055427;28;24505;-78
2021/10/09 08:19:58;;;;;;;18.83;13.68;;;;;;;11.78;89.05;96745.47;5055394;28;21152;-78
2021/10/09 08:22:27;;;;;;;17.75;13.98;;;;;;;11.86;92.28;96745.97;5055394;28;20757;-78
2021/10/09 08:25:05;;;;;;;16.73;13.82;;;;;;;11.88;91.29;96745.03;5054549;28;20775;-77
2021/10/09 08:27:48;;;;;;;18.17;13.20;;;;;;;12.18;94.91;96751.19;5054418;28;21358;-78
2021/10/09 08:36:15;;;;;;;20.60;14.05;;;;;;;12.55;88.93;96757.00;5053721;28;20807;-78
2021/10/09 08:38:50;;;;;;;17.00;13.65;;;;;;;12.53;87.91;96749.28;5054027;28;24593;-78
2021/10/09 08:41:19;;;;;;;27.95;15.85;;;;;;;12.34;87.04;96761.59;5054625;28;24954;-79
2021/10/09 08:43:48;;;;;;;20.63;15.88;;;;;;;12.40;89.97;96758.66;5054237;28;24421;-78
2021/10/09 08:46:15;;;;;;;18.85;14.75;;;;;;;12.52;90.37;96763.19;5053026;28;24467;-77
2021/10/09 08:48:43;;;;;;;22.73;15.48;;;;;;;12.43;86.94;96761.09;5053167;28;20796;-78
2021/10/09 08:51:10;;;;;;;25.02;15.60;;;;;;;12.42;90.59;96762.03;5052934;28;20866;-77
2021/10/09 08:53:37;;;;;;;21.35;15.88;;;;;;;12.44;87.79;96767.97;5052730;28;21172;-77
2021/10/09 08:56:05;;;;;;;20.13;16.40;;;;;;;12.48;89.85;96769.47;5052582;28;20796;-77
2021/10/09 08:58:36;;;;;;;21.80;15.10;;;;;;;12.56;88.10;96764.69;5052624;28;24937;-78
2021/10/09 09:01:09;;;;;;;21.02;15.65;;;;;;;12.45;87.87;96763.59;5053052;28;24446;-78
2021/10/09 09:04:07;;;;;;;22.17;16.02;;;;;;;12.58;88.01;96768.06;5052629;28;24419;-77
2021/10/09 09:25:17;;;;;;;27.85;14.77;;;;;;;12.44;87.99;96760.19;5052631;28;20757;-78
2021/10/09 09:26:16;;;;;;;18.50;15.43;;;;;;;13.19;85.28;96747.34;5052749;28;20651;-77
2021/10/09 09:37:08;;;;;;;19.27;15.07;;;;;;;13.49;82.70;96749.94;4999942;28;24440;-78
2021/10/09 09:39:40;;;;;;;18.58;13.95;;;;;;;13.48;82.09;96750.88;5056773;28;24417;-77
2021/10/09 09:42:08;;;;;;;23.60;15.10;;;;;;;13.33;82.98;96742.19;5057261;28;24444;-78
2021/10/09 09:44:35;;;;;;;18.17;14.20;;;;;;;13.05;82.74;96756.78;5056800;28;24431;-77
2021/10/09 09:47:05;;;;;;;18.30;14.45;;;;;;;13.60;83.34;96759.72;5057160;28;24462;-78
2021/10/09 09:49:32;;;;;;;22.90;15.43;;;;;;;13.52;83.23;96758.41;5056789;28;24445;-78
2021/10/09 09:51:59;;;;;;;19.17;15.47;;;;;;;13.44;81.61;96754.59;5056953;28;24446;-78
2021/10/09 09:54:28;;;;;;;15.85;14.15;;;;;;;13.61;79.37;96758.78;5056712;28;20759;-77
2021/10/09 09:56:57;;;;;;;22.83;14.73;;;;;;;13.70;81.66;96748.69;5057080;28;20804;-78
2021/10/09 09:59:29;;;;;;;20.17;14.85;;;;;;;13.78;83.63;96751.66;5056967;28;20891;-78
2021/10/09 10:01:56;;;;;;;18.15;13.90;;;;;;;13.73;81.24;96743.28;5056929;28;20832;-77
2021/10/09 10:04:24;;;;;;;18.80;13.90;;;;;;;13.90;82.86;96742.25;5056594;28;24419;-78
2021/10/09 10:06:51;;;;;;;18.98;14.52;;;;;;;14.07;81.92;96753.44;5056294;28;24781;-77
2021/10/09 10:09:18;;;;;;;19.88;14.85;;;;;;;14.10;80.37;96748.88;5056616;28;24439;-77
2021/10/09 10:11:45;;;;;;;19.27;14.32;;;;;;;14.09;80.89;96746.34;5056432;28;24430;-78
2021/10/09 10:14:12;;;;;;;19.65;14.10;;;;;;;14.17;81.96;96750.19;5056404;28;24422;-78
2021/10/09 10:16:39;;;;;;;16.95;13.35;;;;;;;13.74;78.87;96749.34;5056130;28;24450;-78
2021/10/09 10:19:06;;;;;;;19.35;15.35;;;;;;;13.94;79.59;96758.53;5056404;28;24442;-77
2021/10/09 10:21:47;;;;;;;17.98;13.75;;;;;;;13.95;78.50;96752.44;5056346;28;24521;-77
2021/10/09 10:24:44;;;;;;;35.35;13.57;;;;;;;14.19;77.85;96756.13;5056252;28;24430;-77
2021/10/09 10:27:31;;;;;;;16.40;13.00;;;;;;;14.19;75.27;96761.31;5055987;28;24438;-78
2021/10/09 10:30:30;;;;;;;17.30;11.65;;;;;;;14.20;71.83;96762.16;5056284;28;24491;-78
2021/10/09 10:33:25;;;;;;;15.93;11.97;;;;;;;14.19;71.62;96758.72;5055693;28;24427;-77
2021/10/09 10:35:51;;;;;;;14.48;11.05;;;;;;;14.25;72.91;96762.72;5056591;28;24426;-77
2021/10/09 10:38:48;;;;;;;15.73;10.75;;;;;;;14.10;70.69;96759.31;5055512;28;24959;-78
2021/10/09 10:41:19;;;;;;;13.93;10.45;;;;;;;14.29;74.58;96759.84;5055762;28;20745;-77
2021/10/09 10:43:48;;;;;;;14.77;11.25;;;;;;;14.33;71.67;96754.44;5055521;28;24937;-77
2021/10/09 10:46:34;;;;;;;14.80;11.13;;;;;;;14.39;71.53;96760.13;5054669;28;24430;-78
2021/10/09 10:49:05;;;;;;;20.15;10.93;;;;;;;14.34;70.12;96762.16;5055139;28;25019;-78
2021/10/09 10:51:53;;;;;;;16.77;11.00;;;;;;;14.24;73.21;96756.69;5055455;28;24411;-77
2021/10/09 10:54:34;;;;;;;17.33;10.87;;;;;;;14.31;71.22;96751.09;5055514;28;24516;-78
2021/10/09 10:57:15;;;;;;;20.73;11.80;;;;;;;14.03;76.17;96751.03;5055781;28;24525;-78
2021/10/09 10:59:49;;;;;;;22.73;11.60;;;;;;;14.44;76.01;96746.78;5056609;28;24430;-78
2021/10/09 11:02:17;;;;;;;16.85;12.05;;;;;;;14.47;74.51;96744.81;5054390;28;24443;-77
2021/10/09 11:04:46;;;;;;;17.77;11.10;;;;;;;14.25;69.85;96747.09;5054023;28;24438;-77
2021/10/09 11:07:13;;;;;;;16.52;11.38;;;;;;;14.20;74.63;96754.34;5054493;28;24423;-77
2021/10/09 11:09:42;;;;;;;15.15;11.10;;;;;;;14.20;74.79;96744.78;5052106;28;24426;-77
2021/10/09 11:12:27;;;;;;;13.73;10.70;;;;;;;14.24;71.18;96750.66;5051798;28;25003;-77
2021/10/09 11:15:06;;;;;;;16.17;11.93;;;;;;;14.22;76.78;96757.72;5031708;28;24443;-77
2021/10/09 11:17:34;;;;;;;15.50;11.75;;;;;;;14.29;73.20;96753.78;5033432;28;24416;-78
2021/10/09 11:20:00;;;;;;;14.18;11.45;;;;;;;14.34;79.71;96751.72;5033312;28;24471;-77
2021/10/09 11:22:38;;;;;;;21.50;11.02;;;;;;;14.34;73.53;96750.91;5032927;28;24444;-77
2021/10/09 11:25:07;;;;;;;21.13;11.80;;;;;;;14.31;69.59;96753.69;5032790;28;24477;-77
2021/10/09 11:27:36;;;;;;;16.98;11.40;;;;;;;14.26;75.33;96749.59;5033271;28;24431;-77
2021/10/09 11:30:06;;;;;;;16.08;11.82;;;;;;;14.24;73.52;96754.09;5032900;28;24547;-77
2021/10/09 11:32:34;;;;;;;19.40;11.40;;;;;;;13.84;71.67;96754.84;5033242;28;24412;-76
2021/10/09 11:35:01;;;;;;;18.02;12.13;;;;;;;14.31;77.84;96756.28;5032755;28;24424;-77
2021/10/09 11:37:28;;;;;;;17.85;11.77;;;;;;;14.38;73.45;96749.78;5032943;28;24434;-76
2021/10/09 11:39:59;;;;;;;15.43;11.13;;;;;;;14.52;74.28;96757.59;5032977;28;24420;-77
2021/10/09 11:42:28;;;;;;;17.90;11.80;;;;;;;14.27;73.61;96758.25;5032719;28;25025;-77
2021/10/09 11:45:10;;;;;;;16.42;12.13;;;;;;;13.85;72.79;96754.72;5032725;28;24427;-77
2021/10/09 11:56:00;;;;;;;17.58;11.57;;;;;;;14.42;74.29;96746.03;5032446;28;24394;-77
2021/10/09 11:58:29;;;;;;;15.00;11.68;;;;;;;14.38;73.91;96745.38;5032486;28;24455;-77
2021/10/09 12:00:56;;;;;;;16.55;11.48;;;;;;;14.42;74.23;96736.44;5049085;28;24551;-77
2021/10/09 12:03:37;;;;;;;15.47;11.80;;;;;;;14.08;72.73;96739.47;5059146;28;24431;-77
2021/10/09 12:06:09;;;;;;;15.10;11.02;;;;;;;14.29;73.21;96740.75;5058510;28;24438;-77
2021/10/09 12:08:47;;;;;;;15.82;10.75;;;;;;;14.47;76.21;96734.41;5059873;28;24899;-77
2021/10/09 12:11:22;;;;;;;13.65;10.43;;;;;;;14.37;71.05;96740.28;5060367;28;24793;-77
2021/10/09 12:13:52;;;;;;;20.40;11.15;;;;;;;14.40;72.48;96729.69;5058990;28;24451;-77
2021/10/09 12:16:23;;;;;;;14.80;10.07;;;;;;;14.32;69.14;96737.97;5058897;28;24435;-77
2021/10/09 12:18:54;;;;;;;12.95;10.07;;;;;;;14.37;73.64;96742.91;5060388;28;24430;-77
2021/10/09 12:21:23;;;;;;;15.83;10.97;;;;;;;14.29;69.01;96739.00;5059518;28;24450;-77
2021/10/09 12:23:52;;;;;;;13.20;10.07;;;;;;;14.37;69.54;96728.09;5070981;28;24443;-77
2021/10/09 12:26:20;;;;;;;13.40;10.60;;;;;;;14.10;70.30;96735.84;5064578;28;24449;-77
2021/10/09 12:29:10;;;;;;;16.42;11.15;;;;;;;13.99;70.13;96733.91;5064667;28;24438;-77
2021/10/09 12:31:38;;;;;;;13.38;10.73;;;;;;;14.09;74.16;96730.72;5057894;28;25010;-78
2021/10/09 12:34:05;;;;;;;15.75;11.23;;;;;;;14.38;71.85;96724.53;5060075;28;24423;-77
2021/10/09 12:36:38;;;;;;;13.68;10.68;;;;;;;14.37;71.60;96727.25;5057705;28;24442;-77
2021/10/09 12:39:21;;;;;;;18.73;11.70;;;;;;;14.39;72.99;96725.41;5060189;28;24995;-77
2021/10/09 12:41:48;;;;;;;14.73;10.55;;;;;;;14.38;72.53;96728.91;5061182;28;24454;-77
2021/10/09 12:44:16;;;;;;;18.60;11.48;;;;;;;14.27;71.75;96722.59;5060569;28;24431;-77
2021/10/09 12:46:42;;;;;;;15.07;10.45;;;;;;;14.34;73.53;96719.63;5060553;28;24518;-77
2021/10/09 12:49:09;;;;;;;14.82;10.18;;;;;;;14.25;71.69;96719.28;5062470;28;24430;-78
2021/10/09 12:51:35;;;;;;;14.80;9.93;;;;;;;14.04;71.88;96718.00;5060883;28;24521;-77
2021/10/09 12:54:05;;;;;;;15.18;10.18;;;;;;;14.29;75.96;96707.72;5063006;28;24439;-77
2021/10/09 12:56:32;;;;;;;15.70;10.32;;;;;;;14.33;73.90;96713.56;5074354;22;24469;-78
2021/10/09 12:58:58;;;;;;;17.25;10.65;;;;;;;14.31;73.38;96714.59;5055731;28;24978;-78
2021/10/09 13:01:26;;;;;;;15.77;9.75;;;;;;;14.06;71.22;96704.88;5055731;28;24952;-78
2021/10/09 13:03:53;;;;;;;15.97;10.57;;;;;;;14.32;70.95;96703.25;5054820;28;24460;-76
2021/10/09 13:06:19;;;;;;;14.88;10.88;;;;;;;13.90;70.31;96705.81;5041921;28;24435;-76